Time;durP1;ratioP1;P1;durP2;ratioP2;P2;SDS_P1;SDS_P2;PMS_P1;PMS_P2;Temp;Humidity;BMP_temperature;BMP_pressure;BME280_temperature;BME280_humidity;BME280_pressure;Samples;Min_cycle;Max_cycle;Signal;HPM_P1;HPM_P2
2023/03/27 00:02:22;;;;;;;10.70;2.83;;;;;;;5.33;80.88;101365.56;5077621;28;20453;-66
2023/03/27 00:04:53;;;;;;;16.05;3.60;;;;;;;5.33;81.06;101362.88;5091936;28;20075;-66
2023/03/27 00:07:21;;;;;;;11.05;3.20;;;;;;;5.34;81.00;101369.94;5116085;28;20402;-66
2023/03/27 00:09:49;;;;;;;12.05;3.63;;;;;;;5.31;81.16;101375.75;5115807;28;20071;-67
2023/03/27 00:12:17;;;;;;;11.60;3.20;;;;;;;5.29;81.43;101378.69;5117450;28;20043;-66
2023/03/27 00:14:45;;;;;;;12.38;2.90;;;;;;;5.28;81.33;101387.00;5116000;28;20086;-67
2023/03/27 00:17:12;;;;;;;9.57;3.08;;;;;;;5.28;81.28;101387.00;5114466;27;20109;-66
2023/03/27 00:19:41;;;;;;;13.77;3.45;;;;;;;5.26;81.35;101389.94;5114841;28;20058;-66
2023/03/27 00:22:09;;;;;;;9.43;3.22;;;;;;;5.25;81.58;101396.38;5115244;27;20423;-66
2023/03/27 00:24:37;;;;;;;12.82;3.20;;;;;;;5.24;81.93;101402.00;5077407;28;20480;-66
2023/03/27 00:27:05;;;;;;;11.10;3.10;;;;;;;5.23;82.13;101403.88;5094585;28;20043;-66
2023/03/27 00:29:33;;;;;;;9.90;2.85;;;;;;;5.22;82.15;101406.78;5104809;27;20050;-66
2023/03/27 00:32:01;;;;;;;12.35;3.30;;;;;;;5.21;82.48;101405.97;5114706;28;20101;-66
2023/03/27 00:34:30;;;;;;;8.45;2.83;;;;;;;5.20;82.83;101406.19;5115590;28;20437;-66
2023/03/27 00:36:57;;;;;;;10.05;3.00;;;;;;;5.20;83.40;101414.31;5115571;28;20388;-66
2023/03/27 00:39:26;;;;;;;8.65;2.90;;;;;;;5.21;83.30;101415.94;5097401;28;20147;-67
2023/03/27 00:41:54;;;;;;;8.48;2.53;;;;;;;5.21;83.61;101418.66;5114880;27;20118;-67
2023/03/27 00:44:26;;;;;;;10.55;3.05;;;;;;;5.18;83.81;101419.09;5115379;28;20385;-66
2023/03/27 00:46:55;;;;;;;11.27;3.10;;;;;;;5.20;84.17;101417.00;5097174;28;20364;-67
2023/03/27 00:49:25;;;;;;;12.63;3.13;;;;;;;5.16;84.66;101418.47;5114686;28;20052;-66
2023/03/27 00:51:53;;;;;;;9.43;2.70;;;;;;;5.18;84.93;101432.59;5114205;28;20052;-66
2023/03/27 00:54:25;;;;;;;10.38;2.90;;;;;;;5.17;85.17;101431.78;5113768;27;20050;-66
2023/03/27 00:56:55;;;;;;;11.82;3.05;;;;;;;5.14;85.44;101432.19;5081015;28;20044;-66
2023/03/27 00:59:28;;;;;;;9.60;3.30;;;;;;;5.15;85.95;101435.72;5099520;28;20050;-65
2023/03/27 01:01:55;;;;;;;11.30;3.10;;;;;;;5.14;86.13;101429.50;5116947;28;20050;-66
2023/03/27 01:04:24;;;;;;;11.73;3.20;;;;;;;5.16;86.31;101435.50;5107653;28;20051;-66
2023/03/27 01:06:54;;;;;;;17.20;3.72;;;;;;;5.17;86.63;101437.19;5084478;27;20098;-66
2023/03/27 01:09:22;;;;;;;12.98;2.92;;;;;;;5.18;86.79;101436.13;5112327;27;20055;-66
2023/03/27 01:12:10;;;;;;;8.63;3.03;;;;;;;5.19;86.98;101455.84;5145883;27;20423;-66
2023/03/27 01:14:57;;;;;;;13.07;3.03;;;;;;;5.18;87.84;101455.03;5113568;27;20501;-66
2023/03/27 01:17:46;;;;;;;8.23;2.65;;;;;;;5.19;87.95;101447.75;5096956;28;20070;-66
2023/03/27 01:20:41;;;;;;;14.85;2.97;;;;;;;5.16;88.28;101445.50;5114315;27;20055;-66
2023/03/27 01:23:50;;;;;;;10.38;2.83;;;;;;;5.19;88.89;101453.16;5114388;28;20487;-66
2023/03/27 01:26:35;;;;;;;9.07;3.03;;;;;;;5.18;89.67;101462.31;5098295;28;20040;-66
2023/03/27 01:29:24;;;;;;;9.38;2.72;;;;;;;5.15;90.27;101462.72;5113303;28;20043;-67
2023/03/27 01:32:26;;;;;;;6.28;2.20;;;;;;;5.10;91.18;101469.63;5093086;28;20051;-66
2023/03/27 01:35:12;;;;;;;12.18;3.08;;;;;;;5.09;91.97;101470.66;5087799;28;20488;-66
2023/03/27 01:37:55;;;;;;;5.82;2.40;;;;;;;5.10;92.12;101480.44;5094258;28;20431;-66
2023/03/27 01:40:28;;;;;;;6.40;2.60;;;;;;;5.11;92.60;101476.66;5060159;28;20075;-66
2023/03/27 01:43:13;;;;;;;10.52;2.95;;;;;;;5.14;92.80;101486.22;5087807;28;20044;-66
2023/03/27 01:45:52;;;;;;;9.80;2.47;;;;;;;5.11;93.00;101489.34;5109413;28;20143;-67
2023/03/27 01:48:34;;;;;;;8.02;2.70;;;;;;;5.12;93.30;101488.31;5092952;28;20044;-65
2023/03/27 01:51:17;;;;;;;10.48;3.28;;;;;;;5.13;93.56;101490.78;5089129;28;20051;-66
2023/03/27 01:54:09;;;;;;;8.00;2.53;;;;;;;5.15;94.02;101495.13;5075686;28;20047;-66
2023/03/27 01:56:41;;;;;;;10.20;2.80;;;;;;;5.17;94.19;101493.06;5058812;28;20044;-67
2023/03/27 01:59:19;;;;;;;8.60;2.47;;;;;;;5.19;94.32;101496.38;5094230;28;20070;-67
2023/03/27 02:02:08;;;;;;;9.10;2.65;;;;;;;5.18;94.34;101497.44;5075757;28;20101;-67
2023/03/27 02:04:42;;;;;;;7.68;2.58;;;;;;;5.18;94.75;101498.25;5075910;28;20123;-67
2023/03/27 02:07:13;;;;;;;9.30;2.47;;;;;;;5.18;94.94;101500.13;5075477;28;20475;-66
2023/03/27 02:09:50;;;;;;;9.50;2.47;;;;;;;5.20;95.04;101511.56;5065075;28;20051;-67
2023/03/27 02:12:23;;;;;;;9.18;2.60;;;;;;;5.16;95.66;101510.31;5065730;28;20377;-67
2023/03/27 02:14:55;;;;;;;7.07;2.40;;;;;;;5.16;96.13;101507.63;5075530;28;20044;-67
2023/03/27 02:17:47;;;;;;;7.95;2.38;;;;;;;5.16;96.55;101515.72;5077845;28;20462;-66
2023/03/27 02:20:16;;;;;;;6.47;2.33;;;;;;;5.18;96.79;101519.03;5057956;28;20080;-67
2023/03/27 02:22:47;;;;;;;11.20;2.70;;;;;;;5.18;96.95;101525.28;5101695;28;20062;-66
2023/03/27 02:25:39;;;;;;;7.50;2.72;;;;;;;5.20;96.99;101527.78;5089583;28;20070;-66
2023/03/27 02:28:35;;;;;;;11.02;2.97;;;;;;;5.15;97.25;101530.25;5074707;28;20048;-67
2023/03/27 02:31:28;;;;;;;6.93;2.72;;;;;;;5.13;97.54;101538.59;5057814;28;20071;-65
2023/03/27 02:34:12;;;;;;;10.30;3.10;;;;;;;5.11;97.92;101538.78;5092156;28;20123;-66
2023/03/27 02:37:05;;;;;;;6.13;2.35;;;;;;;5.11;97.78;101549.59;5091247;28;20052;-67
2023/03/27 02:40:03;;;;;;;9.10;2.60;;;;;;;5.10;97.98;101547.13;5092201;28;20048;-66
2023/03/27 02:42:45;;;;;;;9.32;2.63;;;;;;;5.08;98.33;101546.50;5090894;28;20048;-67
2023/03/27 02:45:46;;;;;;;9.80;2.88;;;;;;;5.05;98.07;101547.78;5074660;28;20095;-67
2023/03/27 02:48:21;;;;;;;7.50;2.80;;;;;;;5.04;98.61;101556.91;5078622;28;20052;-67
2023/03/27 02:51:03;;;;;;;10.27;2.63;;;;;;;5.04;98.63;101553.38;5111140;28;20047;-66
2023/03/27 02:53:36;;;;;;;10.68;2.75;;;;;;;5.02;98.48;101564.38;5095465;28;20134;-67
2023/03/27 02:56:07;;;;;;;8.35;2.85;;;;;;;5.01;98.76;101557.34;5094845;28;20054;-66
2023/03/27 02:58:58;;;;;;;9.77;2.60;;;;;;;5.02;98.34;101564.38;5101541;28;20109;-66
2023/03/27 03:01:39;;;;;;;8.10;2.65;;;;;;;5.00;98.65;101571.03;5060365;28;20514;-66
2023/03/27 03:04:30;;;;;;;9.10;3.00;;;;;;;5.03;99.37;101576.03;5075829;28;20052;-67
2023/03/27 03:07:18;;;;;;;9.30;2.55;;;;;;;5.08;99.47;101574.34;5110180;28;20044;-60
2023/03/27 03:09:46;;;;;;;9.60;2.60;;;;;;;5.11;98.87;101582.00;5114547;28;20056;-60
2023/03/27 03:12:13;;;;;;;8.85;3.20;;;;;;;5.11;98.48;101584.72;5101831;28;20043;-66
2023/03/27 03:14:43;;;;;;;8.65;2.45;;;;;;;5.11;98.66;101590.13;5135925;28;20051;-62
2023/03/27 03:17:15;;;;;;;9.75;2.70;;;;;;;5.12;98.64;101596.34;5093544;28;1098289;-61
2023/03/27 03:19:44;;;;;;;8.10;3.03;;;;;;;5.09;98.02;101602.19;5144368;28;20040;-60
2023/03/27 03:22:13;;;;;;;8.52;2.65;;;;;;;5.02;97.74;101594.09;5099928;28;20074;-61
2023/03/27 03:24:42;;;;;;;8.23;2.95;;;;;;;4.97;98.06;101604.69;5114429;28;20051;-67
2023/03/27 03:27:13;;;;;;;8.07;2.63;;;;;;;4.92;98.59;101604.50;5091736;28;20079;-67
2023/03/27 03:29:55;;;;;;;8.40;2.33;;;;;;;4.90;98.42;101601.19;5091829;28;20040;-67
2023/03/27 03:32:27;;;;;;;10.18;2.90;;;;;;;4.87;98.58;101605.13;5103249;28;20500;-67
2023/03/27 03:34:55;;;;;;;9.57;3.08;;;;;;;4.85;97.95;101606.41;5078561;28;20052;-67
2023/03/27 03:37:27;;;;;;;9.68;2.58;;;;;;;4.83;98.22;101619.28;5098259;28;20055;-67
2023/03/27 03:39:57;;;;;;;7.63;2.88;;;;;;;4.79;98.27;101626.97;5115591;28;20043;-67
2023/03/27 03:42:25;;;;;;;8.45;2.95;;;;;;;4.78;98.39;101622.59;5115188;27;20043;-67
2023/03/27 03:44:52;;;;;;;10.00;3.10;;;;;;;4.78;98.45;101627.16;5115425;28;20043;-67
2023/03/27 03:47:22;;;;;;;9.23;2.80;;;;;;;4.77;98.12;101633.63;5115596;28;20118;-67
2023/03/27 03:49:50;;;;;;;8.98;2.50;;;;;;;4.75;97.87;101633.81;5115415;28;20255;-67
2023/03/27 03:52:17;;;;;;;13.43;3.05;;;;;;;4.73;97.87;101641.28;5121134;28;20471;-67
2023/03/27 03:54:45;;;;;;;9.73;2.90;;;;;;;4.67;97.37;101642.97;5118705;28;20047;-67
2023/03/27 03:57:13;;;;;;;8.60;2.78;;;;;;;4.64;97.29;101647.94;5117797;28;20042;-66
2023/03/27 03:59:46;;;;;;;7.38;2.30;;;;;;;4.60;97.35;101650.25;5111875;28;20359;-66
2023/03/27 04:02:28;;;;;;;8.02;2.85;;;;;;;4.60;97.14;101652.94;5119139;28;20173;-66
2023/03/27 04:05:16;;;;;;;7.97;2.53;;;;;;;4.56;97.79;101651.69;5101686;28;20043;-66
2023/03/27 04:07:44;;;;;;;7.13;2.50;;;;;;;4.58;97.83;101656.88;5114419;27;20051;-67
2023/03/27 04:10:44;;;;;;;10.77;2.60;;;;;;;4.57;97.26;101664.16;5068414;28;20051;-67
2023/03/27 04:13:25;;;;;;;9.95;3.13;;;;;;;4.55;97.19;101668.09;5115209;28;20053;-66
2023/03/27 04:16:00;;;;;;;10.50;2.88;;;;;;;4.54;97.31;101669.94;5099011;28;20414;-66
2023/03/27 04:18:33;;;;;;;7.20;2.50;;;;;;;4.56;96.94;101670.56;5115744;28;20047;-65
2023/03/27 04:21:05;;;;;;;5.88;2.50;;;;;;;4.58;97.12;101673.91;5095503;28;20044;-66
2023/03/27 04:23:33;;;;;;;10.43;2.97;;;;;;;4.61;96.99;101681.56;5097396;28;20048;-66
2023/03/27 04:26:02;;;;;;;7.97;2.88;;;;;;;4.62;96.41;101677.84;5063166;28;20536;-66
2023/03/27 04:28:56;;;;;;;7.43;2.80;;;;;;;4.63;96.09;101690.31;5072640;28;20048;-66
2023/03/27 04:31:45;;;;;;;;;;;;;;;4.62;95.80;101690.53;5099316;27;20070;-68
2023/03/27 04:34:37;;;;;;;7.95;2.70;;;;;;;4.59;95.88;101694.44;5110292;28;20018;-66
2023/03/27 04:37:27;;;;;;;8.27;2.75;;;;;;;4.56;96.27;101705.66;5087168;28;20079;-67
2023/03/27 04:40:12;;;;;;;9.43;2.80;;;;;;;4.53;96.42;101705.25;5079545;28;20044;-67
2023/03/27 04:42:42;;;;;;;6.72;2.58;;;;;;;4.50;96.33;101711.91;5077512;28;20467;-67
2023/03/27 04:45:15;;;;;;;8.93;3.00;;;;;;;4.50;96.62;101717.28;5084885;28;20043;-67
2023/03/27 04:47:47;;;;;;;12.23;2.92;;;;;;;4.47;96.60;101714.97;5100891;28;20496;-66
2023/03/27 04:50:16;;;;;;;9.73;3.20;;;;;;;4.46;96.53;101724.13;5105589;27;20130;-66
2023/03/27 04:52:46;;;;;;;7.38;2.60;;;;;;;4.46;96.42;101724.13;5114288;28;20075;-66
2023/03/27 04:55:18;;;;;;;7.35;2.75;;;;;;;4.45;96.47;101727.88;5114010;28;20073;-66
2023/03/27 04:57:49;;;;;;;9.23;2.78;;;;;;;4.43;96.73;101732.66;5094396;28;20105;-66
2023/03/27 05:00:18;;;;;;;6.95;2.70;;;;;;;4.42;96.71;101736.34;5095360;28;20105;-66
2023/03/27 05:02:47;;;;;;;6.70;2.40;;;;;;;4.40;96.42;101741.13;5092272;28;20108;-68
2023/03/27 05:05:20;;;;;;;7.18;2.60;;;;;;;4.38;96.56;101738.66;5092503;28;20048;-67
2023/03/27 05:07:50;;;;;;;11.00;2.85;;;;;;;4.35;97.03;101743.59;5075849;28;20056;-67
2023/03/27 05:10:21;;;;;;;9.45;2.40;;;;;;;4.34;96.61;101750.88;5095221;28;20071;-66
2023/03/27 05:12:51;;;;;;;5.07;2.30;;;;;;;4.32;96.70;101746.72;5096456;28;20050;-67
2023/03/27 05:15:20;;;;;;;6.50;2.67;;;;;;;4.33;96.61;101753.78;5095339;28;20077;-66
2023/03/27 05:17:54;;;;;;;7.78;2.70;;;;;;;4.35;96.91;101762.50;5119571;28;20066;-66
2023/03/27 05:20:25;;;;;;;7.72;2.47;;;;;;;4.34;96.90;101760.84;5112894;28;20127;-66
2023/03/27 05:22:54;;;;;;;7.32;2.20;;;;;;;4.32;96.57;101769.13;5088067;28;20468;-67
2023/03/27 05:25:29;;;;;;;7.40;2.93;;;;;;;4.32;95.97;101773.69;5093342;28;20442;-63
2023/03/27 05:27:59;;;;;;;5.25;2.30;;;;;;;4.30;95.91;101779.28;5091867;28;20325;-63
2023/03/27 05:30:30;;;;;;;8.32;2.72;;;;;;;4.30;96.37;101781.97;5091606;28;20056;-64
2023/03/27 05:33:19;;;;;;;7.25;2.90;;;;;;;4.27;96.12;101780.53;5108703;28;20052;-63
2023/03/27 05:35:48;;;;;;;7.22;2.50;;;;;;;4.26;96.11;101786.16;5077746;28;20048;-63
2023/03/27 05:38:17;;;;;;;8.18;2.53;;;;;;;4.25;96.21;101790.69;5101206;28;20248;-64
2023/03/27 05:41:10;;;;;;;7.05;2.58;;;;;;;4.22;96.23;101792.97;4386973;28;10000252;-64
2023/03/27 05:43:44;;;;;;;8.68;2.60;;;;;;;4.20;96.86;101786.94;5109906;28;20054;-64
2023/03/27 05:46:13;;;;;;;7.82;2.72;;;;;;;4.18;97.01;101799.78;5107890;27;20412;-64
2023/03/27 05:48:53;;;;;;;6.47;2.65;;;;;;;4.18;96.70;101794.41;5094619;28;20547;-64
2023/03/27 05:51:21;;;;;;;11.38;3.38;;;;;;;4.18;97.19;101797.09;5110242;28;20059;-64
2023/03/27 05:53:48;;;;;;;6.68;2.60;;;;;;;4.16;97.29;101808.09;5109161;28;20050;-63
2023/03/27 05:56:22;;;;;;;10.85;3.30;;;;;;;4.15;97.65;101811.81;5109634;28;20055;-63
2023/03/27 05:58:59;;;;;;;11.52;3.47;;;;;;;4.18;98.17;101815.97;5071313;28;20055;-63
2023/03/27 06:01:28;;;;;;;11.00;3.35;;;;;;;4.21;97.56;101811.03;5088926;28;20056;-64
2023/03/27 06:03:58;;;;;;;9.07;3.30;;;;;;;4.23;97.60;101814.34;5089297;28;20057;-64
2023/03/27 06:06:55;;;;;;;9.68;3.35;;;;;;;4.26;97.77;101824.72;5080552;28;20064;-64
2023/03/27 06:09:24;;;;;;;7.30;2.85;;;;;;;4.27;97.89;101822.88;5073440;28;20048;-65
2023/03/27 06:12:10;;;;;;;8.40;2.88;;;;;;;4.27;98.29;101826.38;5109560;28;20047;-63
2023/03/27 06:14:39;;;;;;;9.73;3.55;;;;;;;4.27;98.47;101826.38;5109009;28;20047;-63
2023/03/27 06:17:25;;;;;;;9.38;3.42;;;;;;;4.26;98.14;101824.72;5110089;28;20136;-64
2023/03/27 06:19:59;;;;;;;11.18;3.00;;;;;;;4.29;98.36;101826.19;5092243;28;20546;-62
2023/03/27 06:22:30;;;;;;;10.15;2.85;;;;;;;4.31;98.41;101831.41;5092133;28;20390;-63
2023/03/27 06:25:04;;;;;;;12.85;3.50;;;;;;;4.34;98.16;101831.00;5094781;28;20058;-63
2023/03/27 06:27:33;;;;;;;9.32;2.97;;;;;;;4.33;98.29;101837.41;5112668;28;20044;-64
2023/03/27 06:30:01;;;;;;;10.55;3.55;;;;;;;4.40;98.54;101840.97;5096155;28;20563;-64
2023/03/27 06:32:30;;;;;;;10.23;3.20;;;;;;;4.36;98.34;101847.81;5096626;28;20096;-63
2023/03/27 06:34:58;;;;;;;8.48;3.03;;;;;;;4.33;97.67;101850.88;5113091;28;20418;-63
2023/03/27 06:37:47;;;;;;;9.90;3.30;;;;;;;4.32;97.71;101860.03;5099307;28;20047;-62
2023/03/27 06:40:23;;;;;;;8.15;3.30;;;;;;;4.32;98.26;101850.06;5097988;28;20054;-63
2023/03/27 06:42:58;;;;;;;6.78;2.58;;;;;;;4.33;97.71;101857.16;5117438;28;20047;-64
2023/03/27 06:45:43;;;;;;;8.63;3.08;;;;;;;4.33;97.12;101862.53;5085047;28;20054;-63
2023/03/27 06:48:31;;;;;;;9.82;3.30;;;;;;;4.30;97.12;101859.41;5123073;28;20059;-66
2023/03/27 06:51:02;;;;;;;7.70;2.50;;;;;;;4.29;97.45;101876.63;5104980;28;20048;-63
2023/03/27 06:53:30;;;;;;;8.00;2.25;;;;;;;4.30;97.44;101883.69;5113557;28;20040;-64
2023/03/27 06:56:04;;;;;;;8.05;3.70;;;;;;;4.27;97.29;101885.72;5113111;28;20048;-63
2023/03/27 06:58:52;;;;;;;6.25;2.30;;;;;;;4.26;97.55;101884.09;5113832;28;20055;-64
2023/03/27 07:01:25;;;;;;;6.97;2.60;;;;;;;4.23;98.05;101884.50;5095815;28;20151;-63
2023/03/27 07:04:13;;;;;;;6.85;2.53;;;;;;;4.20;98.67;101887.56;5113103;28;20156;-64
2023/03/27 07:06:53;;;;;;;6.60;2.20;;;;;;;4.21;98.64;101889.25;5113622;28;20055;-64
2023/03/27 07:09:21;;;;;;;6.88;2.55;;;;;;;4.21;98.81;101888.41;5118675;28;20027;-62
2023/03/27 07:11:59;;;;;;;6.70;2.67;;;;;;;4.22;98.87;101893.59;5130149;27;20078;-64
2023/03/27 07:14:28;;;;;;;5.78;2.20;;;;;;;4.22;98.71;101898.16;5114060;28;20048;-64
2023/03/27 07:17:02;;;;;;;5.70;2.33;;;;;;;4.18;98.04;101896.88;5120308;28;20143;-63
2023/03/27 07:19:46;;;;;;;14.07;3.80;;;;;;;4.17;98.52;101901.47;5106191;28;20078;-62
2023/03/27 07:22:15;;;;;;;7.47;2.25;;;;;;;4.18;98.48;101905.81;5128800;28;20070;-65
2023/03/27 07:24:42;;;;;;;10.55;2.88;;;;;;;4.21;98.08;101905.44;5111474;28;20047;-64
2023/03/27 07:27:10;;;;;;;6.90;2.45;;;;;;;4.24;96.94;101913.13;5113322;27;20110;-64
2023/03/27 07:29:39;;;;;;;6.25;2.22;;;;;;;4.26;97.21;101912.94;5082611;27;20040;-66
2023/03/27 07:32:13;;;;;;;7.82;2.95;;;;;;;4.26;96.93;101921.84;5106343;27;20044;-63
2023/03/27 07:34:56;;;;;;;9.30;2.90;;;;;;;4.26;97.33;101921.84;5096410;28;20387;-64
2023/03/27 07:37:27;;;;;;;7.00;2.83;;;;;;;4.22;95.22;101931.38;5100530;28;20044;-64
2023/03/27 07:40:13;;;;;;;10.38;2.67;;;;;;;4.18;94.96;101924.69;5102387;27;20044;-65
2023/03/27 07:42:46;;;;;;;8.55;2.53;;;;;;;4.22;95.01;101923.28;5097506;27;20123;-64
2023/03/27 07:45:20;;;;;;;9.02;3.03;;;;;;;4.26;94.44;101934.50;5105950;28;20104;-66
2023/03/27 07:47:51;;;;;;;7.30;2.83;;;;;;;4.26;92.54;101937.22;5115989;28;20076;-64
2023/03/27 07:50:20;;;;;;;11.65;3.35;;;;;;;4.21;91.75;101929.72;5095392;28;20075;-63
2023/03/27 07:52:49;;;;;;;11.80;3.90;;;;;;;4.23;91.29;101933.06;5078297;28;20047;-63
2023/03/27 07:55:18;;;;;;;11.82;5.03;;;;;;;4.26;91.84;101932.66;5112682;28;20086;-64
2023/03/27 07:57:57;;;;;;;9.27;3.92;;;;;;;4.33;91.33;101934.53;5078042;28;20097;-64
2023/03/27 08:00:34;;;;;;;12.60;4.78;;;;;;;4.37;90.91;101943.91;5097381;28;20043;-64
2023/03/27 08:03:10;;;;;;;14.40;5.10;;;;;;;4.43;92.51;101949.34;5099782;28;20047;-64
2023/03/27 08:05:43;;;;;;;13.48;3.67;;;;;;;4.63;94.39;101946.72;5099292;28;20052;-63
2023/03/27 08:08:14;;;;;;;14.35;3.88;;;;;;;4.67;89.83;101945.31;5082718;28;20052;-64
2023/03/27 08:11:11;;;;;;;12.65;3.67;;;;;;;4.62;88.32;101942.38;5109880;28;20659;-64
2023/03/27 08:13:54;;;;;;;10.77;3.50;;;;;;;4.62;89.55;101946.94;5114914;28;20135;-64
2023/03/27 08:16:26;;;;;;;13.55;3.60;;;;;;;4.62;89.00;101947.78;5114536;28;20493;-64
2023/03/27 08:18:56;;;;;;;9.27;2.90;;;;;;;4.66;90.09;101949.03;5114873;28;20047;-64
2023/03/27 08:21:27;;;;;;;9.80;3.10;;;;;;;4.67;88.66;101961.50;5102711;28;20047;-64
2023/03/27 08:23:57;;;;;;;9.55;3.25;;;;;;;4.66;89.40;101959.00;5093602;28;20040;-65
2023/03/27 08:26:48;;;;;;;11.45;3.28;;;;;;;4.65;89.37;101968.97;5089258;28;20056;-64
2023/03/27 08:29:16;;;;;;;12.20;3.97;;;;;;;4.66;89.96;101970.63;5068415;28;20051;-63
2023/03/27 08:31:46;;;;;;;9.98;3.60;;;;;;;4.74;89.92;101966.94;5108657;28;20122;-63
2023/03/27 08:34:16;;;;;;;15.05;4.60;;;;;;;4.77;89.35;101969.22;5066971;28;20047;-63
2023/03/27 08:36:46;;;;;;;9.52;3.60;;;;;;;4.81;89.29;101972.34;5097134;28;20381;-65
2023/03/27 08:39:15;;;;;;;8.15;3.13;;;;;;;4.83;87.68;101978.38;5093927;28;20059;-62
2023/03/27 08:41:59;;;;;;;14.45;3.50;;;;;;;4.86;88.29;101975.31;5099486;28;20047;-65
2023/03/27 08:44:34;;;;;;;8.15;2.90;;;;;;;4.87;87.57;101988.56;5094137;28;20432;-63
2023/03/27 08:47:34;;;;;;;13.25;2.97;;;;;;;4.88;88.31;101984.88;5093966;28;20043;-64
2023/03/27 08:50:28;;;;;;;10.85;2.60;;;;;;;4.94;88.17;101988.63;5097125;28;20052;-62
2023/03/27 08:53:37;;;;;;;14.52;3.33;;;;;;;4.98;88.92;101981.78;5114157;28;20085;-62
2023/03/27 08:56:08;;;;;;;8.60;2.78;;;;;;;5.02;88.13;101993.81;5093600;28;20048;-64
2023/03/27 08:58:41;;;;;;;10.80;3.25;;;;;;;5.04;88.50;101986.34;5097462;28;20075;-63
2023/03/27 09:01:25;;;;;;;11.80;2.95;;;;;;;5.08;86.58;102006.53;5114928;28;20054;-63
2023/03/27 09:04:20;;;;;;;10.10;3.33;;;;;;;5.12;85.58;102012.34;5114595;28;20048;-62
2023/03/27 09:07:01;;;;;;;7.45;2.42;;;;;;;5.13;83.56;102006.75;5093898;28;20492;-64
2023/03/27 09:09:58;;;;;;;12.65;3.10;;;;;;;5.18;83.20;102002.63;5093704;28;20044;-64
2023/03/27 09:13:06;;;;;;;10.40;2.60;;;;;;;5.22;83.21;102007.41;5102598;28;20101;-64
2023/03/27 09:15:57;;;;;;;7.72;2.35;;;;;;;5.29;82.40;102015.53;5077757;28;20044;-65
2023/03/27 09:18:55;;;;;;;6.90;2.40;;;;;;;5.36;81.34;102012.84;5078560;28;20066;-63
2023/03/27 09:21:49;;;;;;;8.52;2.75;;;;;;;5.40;78.38;102019.53;5086388;28;20040;-63
2023/03/27 09:24:49;;;;;;;6.35;2.20;;;;;;;5.42;79.45;102018.28;5067286;28;20052;-64
2023/03/27 09:27:51;;;;;;;7.65;2.45;;;;;;;5.51;77.33;102016.22;5084019;28;20085;-64
2023/03/27 09:30:41;;;;;;;9.35;2.72;;;;;;;5.59;77.84;102012.50;5097949;28;20062;-63
2023/03/27 09:33:16;;;;;;;12.82;2.75;;;;;;;5.60;76.75;102017.69;5087368;28;20036;-64
2023/03/27 09:35:48;;;;;;;7.00;2.03;;;;;;;5.54;72.22;102022.03;5098430;28;20127;-64
2023/03/27 09:38:25;;;;;;;6.30;2.10;;;;;;;5.53;72.50;102025.81;5118662;28;20040;-63
2023/03/27 09:41:14;;;;;;;8.30;2.40;;;;;;;5.49;78.86;102029.94;5087949;28;20554;-65
2023/03/27 09:43:53;;;;;;;4.78;2.55;;;;;;;5.41;84.68;102024.72;5069418;28;20492;-64
2023/03/27 09:46:23;;;;;;;6.93;1.98;;;;;;;5.28;87.79;102033.63;5090441;28;20075;-65
2023/03/27 09:49:13;;;;;;;6.20;2.00;;;;;;;5.16;89.32;102046.03;5089596;28;20048;-63
2023/03/27 09:51:53;;;;;;;6.63;2.05;;;;;;;5.07;89.46;102050.78;5093022;28;20082;-64
2023/03/27 09:54:53;;;;;;;5.75;2.15;;;;;;;5.05;90.50;102052.88;5083207;28;20491;-63
2023/03/27 09:57:34;;;;;;;8.00;1.88;;;;;;;5.09;91.05;102051.41;5097507;28;20493;-63
2023/03/27 10:00:08;;;;;;;5.88;2.20;;;;;;;5.17;91.44;102052.28;5079492;28;20051;-64
2023/03/27 10:02:41;;;;;;;9.38;4.05;;;;;;;5.30;91.98;102050.47;5112665;28;20407;-64
2023/03/27 10:05:16;;;;;;;5.97;2.67;;;;;;;5.40;93.04;102051.94;5100696;27;20429;-65
2023/03/27 10:07:48;;;;;;;10.60;4.78;;;;;;;5.38;90.30;102049.44;5097016;27;20066;-64
2023/03/27 10:10:18;;;;;;;9.70;3.97;;;;;;;5.38;88.59;102054.84;5103988;28;20040;-62
2023/03/27 10:13:03;;;;;;;8.65;3.53;;;;;;;5.35;89.44;102066.06;5109441;27;20571;-63
2023/03/27 10:15:40;;;;;;;8.75;3.60;;;;;;;5.37;88.91;102068.59;5095544;27;20048;-63
2023/03/27 10:18:28;;;;;;;10.40;2.72;;;;;;;5.37;83.77;102064.00;5094244;28;20104;-65
2023/03/27 10:21:15;;;;;;;9.35;2.60;;;;;;;5.45;84.54;102052.16;5094585;28;20059;-63
2023/03/27 10:23:48;;;;;;;12.35;3.83;;;;;;;5.51;83.90;102068.41;5111056;28;20502;-64
2023/03/27 10:26:37;;;;;;;9.30;2.47;;;;;;;5.59;80.21;102066.56;5075696;28;20036;-64
2023/03/27 10:29:21;;;;;;;5.95;2.40;;;;;;;5.66;73.53;102062.84;5065032;28;20123;-63
2023/03/27 10:31:55;;;;;;;7.57;2.40;;;;;;;5.79;69.70;102061.19;5092343;28;20059;-65
2023/03/27 10:34:54;;;;;;;7.43;2.40;;;;;;;5.84;71.71;102073.06;5089609;28;20040;-63
2023/03/27 10:37:30;;;;;;;8.75;2.70;;;;;;;5.83;65.84;102095.75;5106537;28;20119;-64
2023/03/27 10:40:21;;;;;;;23.77;2.92;;;;;;;5.71;76.54;102119.84;5052085;28;20408;-63
2023/03/27 10:42:58;;;;;;;5.70;2.13;;;;;;;5.24;83.37;102108.03;5077715;28;20044;-63
2023/03/27 10:45:27;;;;;;;5.65;2.10;;;;;;;5.10;86.19;102120.63;5081018;28;20070;-63
2023/03/27 10:48:00;;;;;;;7.10;2.40;;;;;;;5.03;86.33;102127.03;5111048;28;20051;-63
2023/03/27 10:50:44;;;;;;;6.85;2.10;;;;;;;4.89;88.77;102142.31;5100541;28;20075;-65
2023/03/27 10:53:44;;;;;;;7.78;2.65;;;;;;;4.95;91.36;102129.88;5099069;27;20043;-65
2023/03/27 10:56:23;;;;;;;6.20;2.92;;;;;;;4.82;90.47;102142.28;5095062;27;20100;-64
2023/03/27 10:58:58;;;;;;;3.72;2.08;;;;;;;4.67;91.76;102147.78;5098517;27;20058;-63
2023/03/27 11:01:51;;;;;;;3.78;2.00;;;;;;;4.57;95.21;102155.38;5109125;28;20472;-63
2023/03/27 11:04:34;;;;;;;7.32;2.40;;;;;;;4.57;96.63;102163.47;5096569;28;20399;-63
2023/03/27 11:07:10;;;;;;;4.32;1.67;;;;;;;4.59;96.81;102169.50;5110060;28;20571;-64
2023/03/27 11:09:56;;;;;;;4.35;1.85;;;;;;;4.47;96.59;102144.06;5096405;28;20473;-64
2023/03/27 11:12:32;;;;;;;5.00;2.17;;;;;;;4.53;98.07;102137.91;5088833;28;20511;-63
2023/03/27 11:15:21;;;;;;;5.03;1.95;;;;;;;4.56;97.59;102140.19;5085301;28;20047;-62
2023/03/27 11:18:16;;;;;;;5.55;2.25;;;;;;;4.61;96.88;102140.44;5117991;28;20148;-63
2023/03/27 11:21:06;;;;;;;3.97;1.90;;;;;;;4.66;96.33;102140.69;5116141;28;20380;-65
2023/03/27 11:23:50;;;;;;;7.63;2.30;;;;;;;4.76;95.94;102136.81;5139085;27;20035;-62
2023/03/27 11:26:36;;;;;;;3.47;1.90;;;;;;;4.80;94.18;102135.41;5134945;27;20070;-62
2023/03/27 11:29:21;;;;;;;3.55;1.70;;;;;;;4.89;92.45;102126.94;5115783;28;20109;-63
2023/03/27 11:31:55;;;;;;;4.65;1.90;;;;;;;5.00;90.92;102130.94;5069512;28;20557;-62
2023/03/27 11:34:51;;;;;;;6.70;2.20;;;;;;;5.09;87.41;102131.63;5105693;28;20076;-62
2023/03/27 11:37:42;;;;;;;7.05;2.28;;;;;;;5.23;86.38;102127.13;5085570;28;20448;-62
2023/03/27 11:40:20;;;;;;;7.10;2.20;;;;;;;5.43;87.34;102125.34;5079872;28;20518;-63
2023/03/27 11:42:55;;;;;;;9.98;2.40;;;;;;;5.47;81.97;102139.31;5079486;28;20052;-63
2023/03/27 11:45:26;;;;;;;8.85;2.60;;;;;;;5.51;81.72;102124.34;5085222;28;20031;-63
2023/03/27 11:48:20;;;;;;;7.82;2.60;;;;;;;5.60;80.76;102117.72;5099878;28;20403;-63
2023/03/27 11:50:58;;;;;;;9.43;2.40;;;;;;;5.72;82.79;102128.78;5115542;28;20499;-63
2023/03/27 11:53:42;;;;;;;9.82;2.50;;;;;;;5.88;84.62;102133.81;5081954;28;20043;-62
2023/03/27 11:56:32;;;;;;;8.98;2.58;;;;;;;6.00;83.99;102125.16;5116324;28;20108;-62
2023/03/27 11:59:31;;;;;;;;;;;;;;;6.04;81.96;102137.19;5115885;28;20489;-62
2023/03/27 12:02:18;;;;;;;9.38;2.67;;;;;;;5.95;81.58;102131.16;5099481;28;19920;-64
2023/03/27 12:04:58;;;;;;;14.30;2.67;;;;;;;5.73;86.60;102155.63;5098252;28;20043;-63
2023/03/27 12:07:47;;;;;;;6.50;2.20;;;;;;;5.40;90.55;102150.09;5113182;28;20039;-63
2023/03/27 12:10:28;;;;;;;8.77;2.20;;;;;;;5.32;92.86;102150.25;5098400;28;20408;-62
2023/03/27 12:13:16;;;;;;;7.25;2.25;;;;;;;5.31;93.57;102145.88;5098113;28;20044;-63
2023/03/27 12:16:13;;;;;;;5.82;2.13;;;;;;;5.30;91.87;102149.63;5094988;28;20101;-63
2023/03/27 12:19:00;;;;;;;8.85;2.60;;;;;;;5.41;92.12;102150.91;5085848;28;20048;-64
2023/03/27 12:21:45;;;;;;;6.40;2.45;;;;;;;5.54;91.60;102146.41;5116409;27;20071;-65
2023/03/27 12:24:16;;;;;;;5.88;2.15;;;;;;;5.71;91.57;102140.66;5087789;28;20035;-63